sensor_id;sensor_type;location;lat;lon;timestamp;temperature;humidity
66934;DHT22;53846;51.984;5.890;2022-09-03T00:00:53;21.00;42.70
66934;DHT22;53846;51.984;5.890;2022-09-03T00:03:28;20.60;42.60
66934;DHT22;53846;51.984;5.890;2022-09-03T00:06:08;20.70;42.80
66934;DHT22;53846;51.984;5.890;2022-09-03T00:08:43;20.90;42.90
66934;DHT22;53846;51.984;5.890;2022-09-03T00:11:17;20.80;43.00
66934;DHT22;53846;51.984;5.890;2022-09-03T00:13:51;20.70;42.90
66934;DHT22;53846;51.984;5.890;2022-09-03T00:16:28;20.40;42.80
66934;DHT22;53846;51.984;5.890;2022-09-03T00:19:01;20.70;42.70
66934;DHT22;53846;51.984;5.890;2022-09-03T00:21:38;20.50;43.30
66934;DHT22;53846;51.984;5.890;2022-09-03T00:24:11;20.50;43.20
66934;DHT22;53846;51.984;5.890;2022-09-03T00:26:44;20.50;43.20
66934;DHT22;53846;51.984;5.890;2022-09-03T00:29:16;20.50;43.70
66934;DHT22;53846;51.984;5.890;2022-09-03T00:31:53;20.50;43.30
66934;DHT22;53846;51.984;5.890;2022-09-03T00:34:28;20.60;43.80
66934;DHT22;53846;51.984;5.890;2022-09-03T00:36:57;20.20;43.50
66934;DHT22;53846;51.984;5.890;2022-09-03T00:39:27;20.30;43.90
66934;DHT22;53846;51.984;5.890;2022-09-03T00:42:08;20.20;43.90
66934;DHT22;53846;51.984;5.890;2022-09-03T00:45:01;20.50;44.10
66934;DHT22;53846;51.984;5.890;2022-09-03T00:47:43;20.20;44.40
66934;DHT22;53846;51.984;5.890;2022-09-03T00:50:18;20.20;44.70
66934;DHT22;53846;51.984;5.890;2022-09-03T00:52:56;20.20;44.60
66934;DHT22;53846;51.984;5.890;2022-09-03T00:55:34;20.10;44.70
66934;DHT22;53846;51.984;5.890;2022-09-03T00:58:20;20.10;44.80
66934;DHT22;53846;51.984;5.890;2022-09-03T01:00:52;19.90;45.10
66934;DHT22;53846;51.984;5.890;2022-09-03T01:03:30;19.90;44.70
66934;DHT22;53846;51.984;5.890;2022-09-03T01:06:15;20.00;44.50
66934;DHT22;53846;51.984;5.890;2022-09-03T01:08:58;20.00;45.00
66934;DHT22;53846;51.984;5.890;2022-09-03T01:11:37;20.20;44.70
66934;DHT22;53846;51.984;5.890;2022-09-03T01:14:20;20.00;44.70
66934;DHT22;53846;51.984;5.890;2022-09-03T01:16:57;20.10;44.70
66934;DHT22;53846;51.984;5.890;2022-09-03T01:19:50;20.00;44.90
66934;DHT22;53846;51.984;5.890;2022-09-03T01:22:55;19.90;45.10
66934;DHT22;53846;51.984;5.890;2022-09-03T01:25:36;19.90;45.40
66934;DHT22;53846;51.984;5.890;2022-09-03T01:28:18;19.60;45.20
66934;DHT22;53846;51.984;5.890;2022-09-03T01:30:57;19.70;45.60
66934;DHT22;53846;51.984;5.890;2022-09-03T01:33:35;19.80;45.90
66934;DHT22;53846;51.984;5.890;2022-09-03T01:36:12;19.80;45.70
66934;DHT22;53846;51.984;5.890;2022-09-03T01:38:47;19.80;46.20
66934;DHT22;53846;51.984;5.890;2022-09-03T01:41:26;19.80;46.40
66934;DHT22;53846;51.984;5.890;2022-09-03T01:44:20;20.00;46.60
66934;DHT22;53846;51.984;5.890;2022-09-03T01:47:00;19.50;47.00
66934;DHT22;53846;51.984;5.890;2022-09-03T01:49:38;19.60;46.60
66934;DHT22;53846;51.984;5.890;2022-09-03T01:52:12;19.70;46.60
66934;DHT22;53846;51.984;5.890;2022-09-03T01:54:51;19.60;46.10
66934;DHT22;53846;51.984;5.890;2022-09-03T01:57:36;19.60;46.30
66934;DHT22;53846;51.984;5.890;2022-09-03T02:00:11;19.60;46.90
66934;DHT22;53846;51.984;5.890;2022-09-03T02:02:43;19.60;46.40
66934;DHT22;53846;51.984;5.890;2022-09-03T02:05:15;19.60;46.30
66934;DHT22;53846;51.984;5.890;2022-09-03T02:07:48;19.50;46.80
66934;DHT22;53846;51.984;5.890;2022-09-03T02:10:20;19.60;46.50
66934;DHT22;53846;51.984;5.890;2022-09-03T02:12:52;19.50;46.20
66934;DHT22;53846;51.984;5.890;2022-09-03T02:15:26;19.50;46.50
66934;DHT22;53846;51.984;5.890;2022-09-03T02:18:01;19.50;46.20
66934;DHT22;53846;51.984;5.890;2022-09-03T02:20:31;19.50;46.50
66934;DHT22;53846;51.984;5.890;2022-09-03T02:23:01;19.50;46.40
66934;DHT22;53846;51.984;5.890;2022-09-03T02:25:34;19.40;46.70
66934;DHT22;53846;51.984;5.890;2022-09-03T02:28:05;19.40;47.00
66934;DHT22;53846;51.984;5.890;2022-09-03T02:30:37;19.20;47.00
66934;DHT22;53846;51.984;5.890;2022-09-03T02:33:06;19.30;47.10
66934;DHT22;53846;51.984;5.890;2022-09-03T02:35:36;19.30;46.90
66934;DHT22;53846;51.984;5.890;2022-09-03T02:38:12;19.30;46.90
66934;DHT22;53846;51.984;5.890;2022-09-03T02:40:42;19.30;47.30
66934;DHT22;53846;51.984;5.890;2022-09-03T02:43:14;19.00;47.10
66934;DHT22;53846;51.984;5.890;2022-09-03T02:45:50;19.20;47.40
66934;DHT22;53846;51.984;5.890;2022-09-03T02:48:23;18.90;47.20
66934;DHT22;53846;51.984;5.890;2022-09-03T02:50:53;19.20;47.40
66934;DHT22;53846;51.984;5.890;2022-09-03T02:53:22;19.10;47.80
66934;DHT22;53846;51.984;5.890;2022-09-03T02:55:57;19.10;47.40
66934;DHT22;53846;51.984;5.890;2022-09-03T02:58:27;19.20;47.80
66934;DHT22;53846;51.984;5.890;2022-09-03T03:00:59;19.20;47.50
66934;DHT22;53846;51.984;5.890;2022-09-03T03:03:28;19.00;47.30
66934;DHT22;53846;51.984;5.890;2022-09-03T03:06:00;18.90;47.10
66934;DHT22;53846;51.984;5.890;2022-09-03T03:08:30;18.70;47.30
66934;DHT22;53846;51.984;5.890;2022-09-03T03:11:00;19.20;47.80
66934;DHT22;53846;51.984;5.890;2022-09-03T03:13:30;18.80;48.20
66934;DHT22;53846;51.984;5.890;2022-09-03T03:16:04;18.90;48.30
66934;DHT22;53846;51.984;5.890;2022-09-03T03:18:34;18.90;48.10
66934;DHT22;53846;51.984;5.890;2022-09-03T03:21:04;19.00;47.60
66934;DHT22;53846;51.984;5.890;2022-09-03T03:23:33;19.00;47.40
66934;DHT22;53846;51.984;5.890;2022-09-03T03:26:04;18.90;47.70
66934;DHT22;53846;51.984;5.890;2022-09-03T03:28:34;19.00;47.90
66934;DHT22;53846;51.984;5.890;2022-09-03T03:31:08;19.00;47.60
66934;DHT22;53846;51.984;5.890;2022-09-03T03:33:37;18.60;47.60
66934;DHT22;53846;51.984;5.890;2022-09-03T03:36:08;19.00;48.00
66934;DHT22;53846;51.984;5.890;2022-09-03T03:38:38;18.70;48.00
66934;DHT22;53846;51.984;5.890;2022-09-03T03:41:09;18.90;47.90
66934;DHT22;53846;51.984;5.890;2022-09-03T03:43:39;18.70;48.00
66934;DHT22;53846;51.984;5.890;2022-09-03T03:46:12;18.70;48.10
66934;DHT22;53846;51.984;5.890;2022-09-03T03:48:42;18.70;48.10
66934;DHT22;53846;51.984;5.890;2022-09-03T03:51:11;18.70;48.30
66934;DHT22;53846;51.984;5.890;2022-09-03T03:53:40;18.80;48.40
66934;DHT22;53846;51.984;5.890;2022-09-03T03:56:11;18.60;48.60
66934;DHT22;53846;51.984;5.890;2022-09-03T03:58:42;18.60;48.20
66934;DHT22;53846;51.984;5.890;2022-09-03T04:01:15;18.50;48.40
66934;DHT22;53846;51.984;5.890;2022-09-03T04:03:44;18.50;48.40
66934;DHT22;53846;51.984;5.890;2022-09-03T04:06:16;18.50;48.30
66934;DHT22;53846;51.984;5.890;2022-09-03T04:08:47;18.40;48.40
66934;DHT22;53846;51.984;5.890;2022-09-03T04:11:18;18.50;48.80
66934;DHT22;53846;51.984;5.890;2022-09-03T04:13:48;18.40;48.70
66934;DHT22;53846;51.984;5.890;2022-09-03T04:16:22;18.40;48.60
66934;DHT22;53846;51.984;5.890;2022-09-03T04:18:52;18.40;49.10
66934;DHT22;53846;51.984;5.890;2022-09-03T04:21:22;18.20;48.90
66934;DHT22;53846;51.984;5.890;2022-09-03T04:23:52;18.40;49.00
66934;DHT22;53846;51.984;5.890;2022-09-03T04:26:24;18.60;48.80
66934;DHT22;53846;51.984;5.890;2022-09-03T04:28:56;18.30;49.10
66934;DHT22;53846;51.984;5.890;2022-09-03T04:31:28;18.10;48.70
66934;DHT22;53846;51.984;5.890;2022-09-03T04:33:58;18.30;48.60
66934;DHT22;53846;51.984;5.890;2022-09-03T04:36:29;18.30;48.70
66934;DHT22;53846;51.984;5.890;2022-09-03T04:38:59;18.40;49.50
66934;DHT22;53846;51.984;5.890;2022-09-03T04:41:30;18.30;49.40
66934;DHT22;53846;51.984;5.890;2022-09-03T04:43:59;18.30;49.60
66934;DHT22;53846;51.984;5.890;2022-09-03T04:46:31;18.20;49.30
66934;DHT22;53846;51.984;5.890;2022-09-03T04:49:01;18.20;49.20
66934;DHT22;53846;51.984;5.890;2022-09-03T04:51:32;18.40;49.40
66934;DHT22;53846;51.984;5.890;2022-09-03T04:54:01;18.30;49.40
66934;DHT22;53846;51.984;5.890;2022-09-03T04:56:33;18.10;49.10
66934;DHT22;53846;51.984;5.890;2022-09-03T04:59:04;18.00;49.70
66934;DHT22;53846;51.984;5.890;2022-09-03T05:01:38;17.90;49.30
66934;DHT22;53846;51.984;5.890;2022-09-03T05:04:07;18.20;49.60
66934;DHT22;53846;51.984;5.890;2022-09-03T05:06:36;18.10;49.60
66934;DHT22;53846;51.984;5.890;2022-09-03T05:09:06;18.10;49.50
66934;DHT22;53846;51.984;5.890;2022-09-03T05:11:35;17.80;49.50
66934;DHT22;53846;51.984;5.890;2022-09-03T05:14:04;18.10;50.10
66934;DHT22;53846;51.984;5.890;2022-09-03T05:16:39;18.00;49.40
66934;DHT22;53846;51.984;5.890;2022-09-03T05:19:08;18.00;49.50
66934;DHT22;53846;51.984;5.890;2022-09-03T05:21:37;18.30;49.90
66934;DHT22;53846;51.984;5.890;2022-09-03T05:24:08;18.00;49.60
66934;DHT22;53846;51.984;5.890;2022-09-03T05:26:38;18.00;49.50
66934;DHT22;53846;51.984;5.890;2022-09-03T05:29:07;18.30;49.80
66934;DHT22;53846;51.984;5.890;2022-09-03T05:31:39;18.20;49.50
66934;DHT22;53846;51.984;5.890;2022-09-03T05:34:08;18.20;49.80
66934;DHT22;53846;51.984;5.890;2022-09-03T05:36:37;18.40;49.80
66934;DHT22;53846;51.984;5.890;2022-09-03T05:39:07;18.10;49.50
66934;DHT22;53846;51.984;5.890;2022-09-03T05:41:36;18.10;49.40
66934;DHT22;53846;51.984;5.890;2022-09-03T05:44:05;18.20;49.40
66934;DHT22;53846;51.984;5.890;2022-09-03T05:46:34;18.20;49.30
66934;DHT22;53846;51.984;5.890;2022-09-03T05:49:06;18.30;49.40
66934;DHT22;53846;51.984;5.890;2022-09-03T05:51:37;18.20;49.70
66934;DHT22;53846;51.984;5.890;2022-09-03T05:54:08;18.30;49.60
66934;DHT22;53846;51.984;5.890;2022-09-03T05:56:38;18.20;49.80
66934;DHT22;53846;51.984;5.890;2022-09-03T05:59:08;18.30;49.80
66934;DHT22;53846;51.984;5.890;2022-09-03T06:01:40;18.30;49.80
66934;DHT22;53846;51.984;5.890;2022-09-03T06:04:13;18.40;49.90
66934;DHT22;53846;51.984;5.890;2022-09-03T06:06:44;18.30;51.00
66934;DHT22;53846;51.984;5.890;2022-09-03T06:09:14;18.50;50.80
66934;DHT22;53846;51.984;5.890;2022-09-03T06:11:45;18.40;50.50
66934;DHT22;53846;51.984;5.890;2022-09-03T06:14:15;18.40;50.00
66934;DHT22;53846;51.984;5.890;2022-09-03T06:16:45;18.50;50.00
66934;DHT22;53846;51.984;5.890;2022-09-03T06:19:18;18.50;50.40
66934;DHT22;53846;51.984;5.890;2022-09-03T06:21:47;18.70;50.10
66934;DHT22;53846;51.984;5.890;2022-09-03T06:24:18;18.80;50.10
66934;DHT22;53846;51.984;5.890;2022-09-03T06:26:48;18.70;49.60
66934;DHT22;53846;51.984;5.890;2022-09-03T06:29:17;18.60;49.60
66934;DHT22;53846;51.984;5.890;2022-09-03T06:31:47;18.90;50.10
66934;DHT22;53846;51.984;5.890;2022-09-03T06:34:19;18.60;50.10
66934;DHT22;53846;51.984;5.890;2022-09-03T06:36:50;18.50;49.60
66934;DHT22;53846;51.984;5.890;2022-09-03T06:39:19;18.50;49.60
66934;DHT22;53846;51.984;5.890;2022-09-03T06:41:49;18.90;50.00
66934;DHT22;53846;51.984;5.890;2022-09-03T06:44:26;18.70;49.70
66934;DHT22;53846;51.984;5.890;2022-09-03T06:46:55;18.90;50.00
66934;DHT22;53846;51.984;5.890;2022-09-03T06:49:29;19.00;50.20
66934;DHT22;53846;51.984;5.890;2022-09-03T06:51:58;19.30;49.20
66934;DHT22;53846;51.984;5.890;2022-09-03T06:54:27;19.40;49.20
66934;DHT22;53846;51.984;5.890;2022-09-03T06:56:56;19.20;48.80
66934;DHT22;53846;51.984;5.890;2022-09-03T06:59:26;19.60;48.50
66934;DHT22;53846;51.984;5.890;2022-09-03T07:01:55;19.80;48.30
66934;DHT22;53846;51.984;5.890;2022-09-03T07:04:28;20.00;48.10
66934;DHT22;53846;51.984;5.890;2022-09-03T07:06:59;20.20;48.10
66934;DHT22;53846;51.984;5.890;2022-09-03T07:09:29;20.30;48.00
66934;DHT22;53846;51.984;5.890;2022-09-03T07:12:01;20.40;47.70
66934;DHT22;53846;51.984;5.890;2022-09-03T07:14:31;20.50;47.60
66934;DHT22;53846;51.984;5.890;2022-09-03T07:17:00;20.40;47.60
66934;DHT22;53846;51.984;5.890;2022-09-03T07:19:32;20.50;47.00
66934;DHT22;53846;51.984;5.890;2022-09-03T07:22:01;20.40;47.20
66934;DHT22;53846;51.984;5.890;2022-09-03T07:24:30;20.70;47.40
66934;DHT22;53846;51.984;5.890;2022-09-03T07:26:59;20.70;47.00
66934;DHT22;53846;51.984;5.890;2022-09-03T07:29:28;20.80;47.60
66934;DHT22;53846;51.984;5.890;2022-09-03T07:31:57;21.10;47.00
66934;DHT22;53846;51.984;5.890;2022-09-03T07:34:27;20.90;47.60
66934;DHT22;53846;51.984;5.890;2022-09-03T07:36:59;21.00;46.80
66934;DHT22;53846;51.984;5.890;2022-09-03T07:39:30;20.90;46.70
66934;DHT22;53846;51.984;5.890;2022-09-03T07:41:59;21.10;46.60
66934;DHT22;53846;51.984;5.890;2022-09-03T07:44:29;21.20;46.90
66934;DHT22;53846;51.984;5.890;2022-09-03T07:46:58;21.30;47.30
66934;DHT22;53846;51.984;5.890;2022-09-03T07:49:27;21.40;46.40
66934;DHT22;53846;51.984;5.890;2022-09-03T07:51:59;21.40;46.40
66934;DHT22;53846;51.984;5.890;2022-09-03T07:54:28;21.30;45.20
66934;DHT22;53846;51.984;5.890;2022-09-03T07:56:57;21.80;45.60
66934;DHT22;53846;51.984;5.890;2022-09-03T07:59:27;21.80;46.20
66934;DHT22;53846;51.984;5.890;2022-09-03T08:01:56;21.90;46.10
66934;DHT22;53846;51.984;5.890;2022-09-03T08:04:25;21.80;45.20
66934;DHT22;53846;51.984;5.890;2022-09-03T08:06:55;22.00;45.40
66934;DHT22;53846;51.984;5.890;2022-09-03T08:09:27;22.10;45.40
66934;DHT22;53846;51.984;5.890;2022-09-03T08:11:58;22.30;45.00
66934;DHT22;53846;51.984;5.890;2022-09-03T08:14:27;22.20;44.40
66934;DHT22;53846;51.984;5.890;2022-09-03T08:16:56;22.50;44.40
66934;DHT22;53846;51.984;5.890;2022-09-03T08:19:26;22.60;44.00
66934;DHT22;53846;51.984;5.890;2022-09-03T08:21:55;22.80;43.80
66934;DHT22;53846;51.984;5.890;2022-09-03T08:24:27;22.90;43.10
66934;DHT22;53846;51.984;5.890;2022-09-03T08:26:56;23.00;41.60
66934;DHT22;53846;51.984;5.890;2022-09-03T08:29:25;23.20;43.30
66934;DHT22;53846;51.984;5.890;2022-09-03T08:31:54;23.30;42.90
66934;DHT22;53846;51.984;5.890;2022-09-03T08:34:24;23.50;42.70
66934;DHT22;53846;51.984;5.890;2022-09-03T08:36:53;23.50;42.10
66934;DHT22;53846;51.984;5.890;2022-09-03T08:39:22;23.50;41.30
66934;DHT22;53846;51.984;5.890;2022-09-03T08:42:13;23.80;41.30
66934;DHT22;53846;51.984;5.890;2022-09-03T08:44:49;24.00;40.60
66934;DHT22;53846;51.984;5.890;2022-09-03T08:47:22;24.10;40.40
66934;DHT22;53846;51.984;5.890;2022-09-03T08:49:55;24.40;40.50
66934;DHT22;53846;51.984;5.890;2022-09-03T08:52:29;24.40;40.10
66934;DHT22;53846;51.984;5.890;2022-09-03T08:55:12;24.20;40.00
66934;DHT22;53846;51.984;5.890;2022-09-03T08:57:48;24.50;40.30
66934;DHT22;53846;51.984;5.890;2022-09-03T09:00:17;24.60;39.60
66934;DHT22;53846;51.984;5.890;2022-09-03T09:02:56;24.70;39.30
66934;DHT22;53846;51.984;5.890;2022-09-03T09:05:40;24.80;39.40
66934;DHT22;53846;51.984;5.890;2022-09-03T09:08:19;24.90;39.10
66934;DHT22;53846;51.984;5.890;2022-09-03T09:10:56;25.10;39.50
66934;DHT22;53846;51.984;5.890;2022-09-03T09:13:39;25.00;38.60
66934;DHT22;53846;51.984;5.890;2022-09-03T09:16:16;25.20;38.40
66934;DHT22;53846;51.984;5.890;2022-09-03T09:18:55;25.20;38.80
66934;DHT22;53846;51.984;5.890;2022-09-03T09:21:33;25.40;39.20
66934;DHT22;53846;51.984;5.890;2022-09-03T09:24:17;25.30;37.80
66934;DHT22;53846;51.984;5.890;2022-09-03T09:26:49;25.60;38.10
66934;DHT22;53846;51.984;5.890;2022-09-03T09:29:24;25.70;37.70
66934;DHT22;53846;51.984;5.890;2022-09-03T09:31:55;25.70;37.30
66934;DHT22;53846;51.984;5.890;2022-09-03T09:34:24;25.50;37.30
66934;DHT22;53846;51.984;5.890;2022-09-03T09:36:54;25.90;38.00
66934;DHT22;53846;51.984;5.890;2022-09-03T09:39:23;26.20;37.90
66934;DHT22;53846;51.984;5.890;2022-09-03T09:41:56;26.40;36.80
66934;DHT22;53846;51.984;5.890;2022-09-03T09:44:29;26.60;36.40
66934;DHT22;53846;51.984;5.890;2022-09-03T09:47:04;26.40;36.40
66934;DHT22;53846;51.984;5.890;2022-09-03T09:49:37;26.80;36.70
66934;DHT22;53846;51.984;5.890;2022-09-03T09:52:09;26.70;36.40
66934;DHT22;53846;51.984;5.890;2022-09-03T09:54:40;26.70;36.40
66934;DHT22;53846;51.984;5.890;2022-09-03T09:57:14;26.70;36.20
66934;DHT22;53846;51.984;5.890;2022-09-03T09:59:48;26.90;36.30
66934;DHT22;53846;51.984;5.890;2022-09-03T10:02:24;27.00;35.60
66934;DHT22;53846;51.984;5.890;2022-09-03T10:04:55;26.90;35.60
66934;DHT22;53846;51.984;5.890;2022-09-03T10:07:29;27.00;35.10
66934;DHT22;53846;51.984;5.890;2022-09-03T10:10:03;27.10;35.80
66934;DHT22;53846;51.984;5.890;2022-09-03T10:12:39;27.10;35.30
66934;DHT22;53846;51.984;5.890;2022-09-03T10:15:19;27.00;35.30
66934;DHT22;53846;51.984;5.890;2022-09-03T10:17:58;27.30;35.70
66934;DHT22;53846;51.984;5.890;2022-09-03T10:20:33;27.30;35.20
66934;DHT22;53846;51.984;5.890;2022-09-03T10:23:10;27.50;35.70
66934;DHT22;53846;51.984;5.890;2022-09-03T10:25:51;27.60;35.30
66934;DHT22;53846;51.984;5.890;2022-09-03T10:28:27;27.40;34.90
66934;DHT22;53846;51.984;5.890;2022-09-03T10:31:12;27.60;35.00
66934;DHT22;53846;51.984;5.890;2022-09-03T10:33:48;28.00;35.30
66934;DHT22;53846;51.984;5.890;2022-09-03T10:36:24;27.80;34.60
66934;DHT22;53846;51.984;5.890;2022-09-03T10:39:00;27.90;34.40
66934;DHT22;53846;51.984;5.890;2022-09-03T10:41:39;28.00;34.60
66934;DHT22;53846;51.984;5.890;2022-09-03T10:44:21;28.30;34.40
66934;DHT22;53846;51.984;5.890;2022-09-03T10:47:07;28.20;34.30
66934;DHT22;53846;51.984;5.890;2022-09-03T10:49:48;28.30;34.50
66934;DHT22;53846;51.984;5.890;2022-09-03T10:52:26;28.20;34.20
66934;DHT22;53846;51.984;5.890;2022-09-03T10:55:09;28.30;34.50
66934;DHT22;53846;51.984;5.890;2022-09-03T10:57:48;28.40;33.60
66934;DHT22;53846;51.984;5.890;2022-09-03T11:00:19;28.50;34.00
66934;DHT22;53846;51.984;5.890;2022-09-03T11:03:09;28.40;33.50
66934;DHT22;53846;51.984;5.890;2022-09-03T11:05:57;28.50;33.20
66934;DHT22;53846;51.984;5.890;2022-09-03T11:08:31;28.60;33.20
66934;DHT22;53846;51.984;5.890;2022-09-03T11:11:09;28.60;32.90
66934;DHT22;53846;51.984;5.890;2022-09-03T11:13:45;28.70;33.70
66934;DHT22;53846;51.984;5.890;2022-09-03T11:16:17;28.80;33.30
66934;DHT22;53846;51.984;5.890;2022-09-03T11:18:57;28.80;33.30
66934;DHT22;53846;51.984;5.890;2022-09-03T11:21:32;28.80;33.40
66934;DHT22;53846;51.984;5.890;2022-09-03T11:24:07;28.70;33.00
66934;DHT22;53846;51.984;5.890;2022-09-03T11:26:39;28.90;33.00
66934;DHT22;53846;51.984;5.890;2022-09-03T11:29:12;28.80;33.00
66934;DHT22;53846;51.984;5.890;2022-09-03T11:31:52;29.00;32.70
66934;DHT22;53846;51.984;5.890;2022-09-03T11:34:43;28.90;32.40
66934;DHT22;53846;51.984;5.890;2022-09-03T11:37:21;29.10;32.60
66934;DHT22;53846;51.984;5.890;2022-09-03T11:39:58;29.20;31.80
66934;DHT22;53846;51.984;5.890;2022-09-03T11:42:35;29.40;32.70
66934;DHT22;53846;51.984;5.890;2022-09-03T11:45:13;29.20;31.80
66934;DHT22;53846;51.984;5.890;2022-09-03T11:47:49;29.60;32.90
66934;DHT22;53846;51.984;5.890;2022-09-03T11:50:24;29.40;32.50
66934;DHT22;53846;51.984;5.890;2022-09-03T11:53:07;29.40;32.40
66934;DHT22;53846;51.984;5.890;2022-09-03T11:55:50;29.50;32.60
66934;DHT22;53846;51.984;5.890;2022-09-03T11:58:24;29.70;32.20
66934;DHT22;53846;51.984;5.890;2022-09-03T12:00:54;29.60;32.30
66934;DHT22;53846;51.984;5.890;2022-09-03T12:03:26;29.70;33.10
66934;DHT22;53846;51.984;5.890;2022-09-03T12:06:17;29.80;32.20
66934;DHT22;53846;51.984;5.890;2022-09-03T12:09:05;29.50;32.10
66934;DHT22;53846;51.984;5.890;2022-09-03T12:11:47;30.00;32.50
66934;DHT22;53846;51.984;5.890;2022-09-03T12:14:25;30.20;31.90
66934;DHT22;53846;51.984;5.890;2022-09-03T12:17:11;30.20;32.00
66934;DHT22;53846;51.984;5.890;2022-09-03T12:19:48;30.20;32.00
66934;DHT22;53846;51.984;5.890;2022-09-03T12:22:22;30.20;32.10
66934;DHT22;53846;51.984;5.890;2022-09-03T12:24:53;30.40;31.80
66934;DHT22;53846;51.984;5.890;2022-09-03T12:27:23;30.30;31.40
66934;DHT22;53846;51.984;5.890;2022-09-03T12:29:55;30.30;30.70
66934;DHT22;53846;51.984;5.890;2022-09-03T12:32:27;30.30;31.50
66934;DHT22;53846;51.984;5.890;2022-09-03T12:35:11;30.30;31.50
66934;DHT22;53846;51.984;5.890;2022-09-03T12:37:44;30.30;31.40
66934;DHT22;53846;51.984;5.890;2022-09-03T12:40:17;30.10;31.40
66934;DHT22;53846;51.984;5.890;2022-09-03T12:42:47;30.40;31.90
66934;DHT22;53846;51.984;5.890;2022-09-03T12:45:19;30.30;32.10
66934;DHT22;53846;51.984;5.890;2022-09-03T12:47:49;30.40;32.20
66934;DHT22;53846;51.984;5.890;2022-09-03T12:50:20;30.50;32.30
66934;DHT22;53846;51.984;5.890;2022-09-03T12:52:54;30.60;32.00
66934;DHT22;53846;51.984;5.890;2022-09-03T12:55:28;30.70;31.70
66934;DHT22;53846;51.984;5.890;2022-09-03T12:58:04;30.70;31.60
66934;DHT22;53846;51.984;5.890;2022-09-03T13:00:38;30.80;31.40
66934;DHT22;53846;51.984;5.890;2022-09-03T13:03:13;30.90;31.10
66934;DHT22;53846;51.984;5.890;2022-09-03T13:05:46;30.70;31.30
66934;DHT22;53846;51.984;5.890;2022-09-03T13:08:22;30.80;32.00
66934;DHT22;53846;51.984;5.890;2022-09-03T13:10:55;31.10;31.60
66934;DHT22;53846;51.984;5.890;2022-09-03T13:13:27;31.10;31.90
66934;DHT22;53846;51.984;5.890;2022-09-03T13:16:14;31.10;32.10
66934;DHT22;53846;51.984;5.890;2022-09-03T13:18:55;31.00;31.40
66934;DHT22;53846;51.984;5.890;2022-09-03T13:21:38;30.90;31.50
66934;DHT22;53846;51.984;5.890;2022-09-03T13:24:36;31.10;31.80
66934;DHT22;53846;51.984;5.890;2022-09-03T13:27:15;31.20;31.80
66934;DHT22;53846;51.984;5.890;2022-09-03T13:30:03;31.20;31.70
66934;DHT22;53846;51.984;5.890;2022-09-03T13:32:40;31.20;31.70
66934;DHT22;53846;51.984;5.890;2022-09-03T13:35:19;31.00;31.90
66934;DHT22;53846;51.984;5.890;2022-09-03T13:37:54;31.20;31.70
66934;DHT22;53846;51.984;5.890;2022-09-03T13:40:34;31.30;31.40
66934;DHT22;53846;51.984;5.890;2022-09-03T13:43:14;31.40;30.60
66934;DHT22;53846;51.984;5.890;2022-09-03T13:45:52;31.60;30.70
66934;DHT22;53846;51.984;5.890;2022-09-03T13:48:26;31.50;30.80
66934;DHT22;53846;51.984;5.890;2022-09-03T13:51:15;31.50;30.60
66934;DHT22;53846;51.984;5.890;2022-09-03T13:53:54;31.60;30.00
66934;DHT22;53846;51.984;5.890;2022-09-03T13:56:35;31.50;30.70
66934;DHT22;53846;51.984;5.890;2022-09-03T13:59:17;31.50;31.90
66934;DHT22;53846;51.984;5.890;2022-09-03T14:02:15;31.50;30.10
66934;DHT22;53846;51.984;5.890;2022-09-03T14:04:57;31.40;30.70
66934;DHT22;53846;51.984;5.890;2022-09-03T14:07:44;31.10;30.80
66934;DHT22;53846;51.984;5.890;2022-09-03T14:10:22;31.30;31.60
66934;DHT22;53846;51.984;5.890;2022-09-03T14:13:05;31.40;31.20
66934;DHT22;53846;51.984;5.890;2022-09-03T14:15:43;31.50;31.20
66934;DHT22;53846;51.984;5.890;2022-09-03T14:18:22;31.50;30.50
66934;DHT22;53846;51.984;5.890;2022-09-03T14:21:02;31.60;30.70
66934;DHT22;53846;51.984;5.890;2022-09-03T14:23:39;31.60;30.40
66934;DHT22;53846;51.984;5.890;2022-09-03T14:26:17;31.70;31.30
66934;DHT22;53846;51.984;5.890;2022-09-03T14:28:57;31.70;31.00
66934;DHT22;53846;51.984;5.890;2022-09-03T14:31:40;31.80;30.40
66934;DHT22;53846;51.984;5.890;2022-09-03T14:34:25;31.80;30.40
66934;DHT22;53846;51.984;5.890;2022-09-03T14:37:04;31.70;30.70
66934;DHT22;53846;51.984;5.890;2022-09-03T14:39:46;31.90;30.70
66934;DHT22;53846;51.984;5.890;2022-09-03T14:42:35;31.90;30.30
66934;DHT22;53846;51.984;5.890;2022-09-03T14:45:23;31.90;30.10
66934;DHT22;53846;51.984;5.890;2022-09-03T14:48:07;31.90;30.30
66934;DHT22;53846;51.984;5.890;2022-09-03T14:50:50;32.00;30.00
66934;DHT22;53846;51.984;5.890;2022-09-03T14:53:43;32.20;29.80
66934;DHT22;53846;51.984;5.890;2022-09-03T14:56:22;32.10;30.00
66934;DHT22;53846;51.984;5.890;2022-09-03T14:59:06;32.20;30.10
66934;DHT22;53846;51.984;5.890;2022-09-03T15:01:45;32.30;30.40
66934;DHT22;53846;51.984;5.890;2022-09-03T15:04:31;32.50;30.00
66934;DHT22;53846;51.984;5.890;2022-09-03T15:07:17;32.50;29.70
66934;DHT22;53846;51.984;5.890;2022-09-03T15:09:56;32.70;29.60
66934;DHT22;53846;51.984;5.890;2022-09-03T15:12:33;32.90;30.00
66934;DHT22;53846;51.984;5.890;2022-09-03T15:15:09;32.60;28.90
66934;DHT22;53846;51.984;5.890;2022-09-03T15:17:50;32.50;29.40
66934;DHT22;53846;51.984;5.890;2022-09-03T15:20:25;32.40;29.10
66934;DHT22;53846;51.984;5.890;2022-09-03T15:23:10;32.20;29.50
66934;DHT22;53846;51.984;5.890;2022-09-03T15:25:51;32.50;29.80
66934;DHT22;53846;51.984;5.890;2022-09-03T15:28:32;32.60;30.50
66934;DHT22;53846;51.984;5.890;2022-09-03T15:31:15;32.50;30.00
66934;DHT22;53846;51.984;5.890;2022-09-03T15:33:59;32.70;29.90
66934;DHT22;53846;51.984;5.890;2022-09-03T15:36:35;32.90;29.70
66934;DHT22;53846;51.984;5.890;2022-09-03T15:39:09;32.70;29.50
66934;DHT22;53846;51.984;5.890;2022-09-03T15:41:43;32.70;29.30
66934;DHT22;53846;51.984;5.890;2022-09-03T15:44:15;32.70;29.20
66934;DHT22;53846;51.984;5.890;2022-09-03T15:46:50;32.90;29.00
66934;DHT22;53846;51.984;5.890;2022-09-03T15:49:35;32.80;28.90
66934;DHT22;53846;51.984;5.890;2022-09-03T15:52:09;32.50;28.80
66934;DHT22;53846;51.984;5.890;2022-09-03T15:54:48;32.30;29.40
66934;DHT22;53846;51.984;5.890;2022-09-03T15:57:25;32.20;29.30
66934;DHT22;53846;51.984;5.890;2022-09-03T16:00:00;32.30;29.30
66934;DHT22;53846;51.984;5.890;2022-09-03T16:02:37;32.20;29.80
66934;DHT22;53846;51.984;5.890;2022-09-03T16:05:13;32.20;29.80
66934;DHT22;53846;51.984;5.890;2022-09-03T16:08:06;32.00;29.30
66934;DHT22;53846;51.984;5.890;2022-09-03T16:10:44;32.00;29.50
66934;DHT22;53846;51.984;5.890;2022-09-03T16:13:32;32.10;30.00
66934;DHT22;53846;51.984;5.890;2022-09-03T16:16:04;31.90;30.00
66934;DHT22;53846;51.984;5.890;2022-09-03T16:18:37;31.90;30.00